Time;durP1;ratioP1;P1;durP2;ratioP2;P2;SDS_P1;SDS_P2;PMS_P1;PMS_P2;Temp;Humidity;BMP_temperature;BMP_pressure;BME280_temperature;BME280_humidity;BME280_pressure;Samples;Min_cycle;Max_cycle;Signal;HPM_P1;HPM_P2
2022/05/09 00:01:24;;;;;;;12.98;2.88;;;9.60;99.90;;;;;;4993636;28;20049;-71
2022/05/09 00:03:50;;;;;;;13.15;3.03;;;9.60;99.90;;;;;;4993846;28;20441;-71
2022/05/09 00:06:15;;;;;;;9.38;2.60;;;9.60;99.90;;;;;;4994059;28;20026;-71
2022/05/09 00:08:42;;;;;;;6.07;2.97;;;9.50;99.90;;;;;;4993234;28;20034;-72
2022/05/09 00:11:12;;;;;;;9.82;3.15;;;9.60;99.90;;;;;;4993656;28;20027;-72
2022/05/09 00:13:38;;;;;;;8.57;2.85;;;9.50;99.90;;;;;;4994130;28;20042;-71
2022/05/09 00:16:05;;;;;;;17.10;3.35;;;9.40;99.90;;;;;;4993149;28;20053;-72
2022/05/09 00:18:31;;;;;;;4.60;2.78;;;9.50;99.90;;;;;;4993877;28;20030;-72
2022/05/09 00:20:56;;;;;;;9.02;3.75;;;9.50;99.90;;;;;;4993625;28;20537;-72
2022/05/09 00:23:22;;;;;;;11.10;2.60;;;9.50;99.90;;;;;;4993158;28;20118;-71
2022/05/09 00:25:48;;;;;;;8.93;3.08;;;9.40;99.90;;;;;;4993784;28;20121;-72
2022/05/09 00:28:13;;;;;;;9.68;3.22;;;9.40;99.90;;;;;;4993463;28;20022;-72
2022/05/09 00:30:39;;;;;;;9.30;3.33;;;9.30;99.90;;;;;;4992976;28;20026;-72
2022/05/09 00:33:05;;;;;;;11.07;3.35;;;9.30;99.90;;;;;;4993435;28;20029;-72
2022/05/09 00:35:30;;;;;;;6.20;2.97;;;9.30;99.90;;;;;;4993495;28;20026;-71
2022/05/09 00:37:56;;;;;;;7.45;2.70;;;9.30;99.90;;;;;;4992633;28;20026;-70
2022/05/09 00:40:22;;;;;;;9.18;3.10;;;9.20;99.90;;;;;;4993585;28;20068;-71
2022/05/09 00:42:50;;;;;;;10.48;3.15;;;9.20;99.90;;;;;;4992654;28;20046;-72
2022/05/09 00:45:17;;;;;;;9.15;3.33;;;9.10;99.90;;;;;;4993565;28;20050;-72
2022/05/09 00:47:43;;;;;;;11.30;3.85;;;9.10;99.90;;;;;;4993388;28;20026;-71
2022/05/09 00:50:12;;;;;;;11.40;3.08;;;9.00;99.90;;;;;;4992207;28;20064;-71
2022/05/09 00:52:47;;;;;;;9.23;2.83;;;9.00;99.90;;;;;;4993384;28;20040;-72
2022/05/09 00:55:36;;;;;;;8.90;2.90;;;9.00;99.90;;;;;;4993297;28;20149;-72
2022/05/09 00:58:12;;;;;;;7.18;3.17;;;9.00;99.90;;;;;;4992031;28;20046;-72
2022/05/09 01:00:40;;;;;;;11.13;2.65;;;9.00;99.90;;;;;;4993198;28;20049;-72
2022/05/09 01:03:13;;;;;;;6.28;2.78;;;8.90;99.90;;;;;;4993099;28;20037;-72
2022/05/09 01:05:42;;;;;;;13.13;4.18;;;8.90;99.90;;;;;;4992546;28;20038;-72
2022/05/09 01:08:08;;;;;;;7.82;3.05;;;8.90;99.90;;;;;;4992812;28;20042;-72
2022/05/09 01:10:38;;;;;;;21.52;3.78;;;8.90;99.90;;;;;;4992250;28;20133;-72
2022/05/09 01:13:08;;;;;;;9.45;3.63;;;8.90;99.90;;;;;;4991912;28;20371;-72
2022/05/09 01:15:34;;;;;;;6.15;2.78;;;8.80;99.90;;;;;;4993175;28;20080;-72
2022/05/09 01:18:01;;;;;;;5.32;3.25;;;8.80;99.90;;;;;;4991941;28;20475;-72
2022/05/09 01:20:27;;;;;;;7.65;2.95;;;8.80;99.90;;;;;;4993014;28;20116;-72
2022/05/09 01:22:57;;;;;;;8.32;3.67;;;8.80;99.90;;;;;;4992562;28;20062;-71
2022/05/09 01:25:23;;;;;;;6.78;2.60;;;8.70;99.90;;;;;;4992073;28;20069;-72
2022/05/09 01:27:49;;;;;;;9.23;2.53;;;8.70;99.90;;;;;;4992965;28;20039;-72
2022/05/09 01:30:36;;;;;;;8.63;3.17;;;8.70;99.90;;;;;;4992935;28;20541;-72
2022/05/09 01:33:11;;;;;;;11.50;3.25;;;8.70;99.90;;;;;;4992006;28;20031;-71
2022/05/09 01:35:57;;;;;;;3.15;2.80;;;8.60;99.90;;;;;;4994760;28;20387;-72
2022/05/09 01:38:46;;;;;;;9.55;3.00;;;8.60;99.90;;;;;;4998618;28;20352;-71
2022/05/09 01:41:12;;;;;;;8.63;2.63;;;8.60;99.90;;;;;;4992049;28;20035;-71
2022/05/09 01:43:40;;;;;;;5.03;3.00;;;8.50;99.90;;;;;;4992710;28;20047;-71
2022/05/09 01:46:12;;;;;;;9.52;3.28;;;8.60;99.90;;;;;;4993011;28;20546;-72
2022/05/09 01:51:23;;;;;;;10.68;3.10;;;8.40;99.90;;;;;;4993298;28;20115;-72
2022/05/09 01:53:52;;;;;;;12.10;3.13;;;8.40;99.90;;;;;;4992936;28;20065;-71
2022/05/09 01:56:27;;;;;;;11.15;2.70;;;8.40;99.90;;;;;;4992579;28;20387;-71
2022/05/09 01:58:53;;;;;;;9.73;3.05;;;8.40;99.90;;;;;;4992292;28;20035;-72
2022/05/09 02:01:21;;;;;;;7.82;2.63;;;8.40;99.90;;;;;;4991665;28;20522;-71
2022/05/09 02:03:47;;;;;;;6.80;2.80;;;8.40;99.90;;;;;;4992424;28;20031;-72
2022/05/09 02:06:17;;;;;;;10.93;2.60;;;8.40;99.90;;;;;;5008263;28;20064;-71
2022/05/09 02:08:43;;;;;;;10.45;4.03;;;8.30;99.90;;;;;;5031199;28;20394;-71
2022/05/09 02:11:10;;;;;;;6.07;2.90;;;8.30;99.90;;;;;;5031536;28;20103;-72
2022/05/09 02:13:35;;;;;;;5.22;3.00;;;8.30;99.90;;;;;;5031727;28;20045;-72
2022/05/09 02:16:02;;;;;;;11.20;3.60;;;8.30;99.90;;;;;;5030833;28;20048;-72
2022/05/09 02:18:28;;;;;;;11.77;3.50;;;8.20;99.90;;;;;;5031439;28;20457;-73
2022/05/09 02:20:53;;;;;;;11.77;2.92;;;8.10;99.90;;;;;;5031840;28;20108;-71
2022/05/09 02:23:19;;;;;;;9.77;2.70;;;8.20;99.90;;;;;;5033979;28;20018;-72
2022/05/09 02:25:45;;;;;;;8.43;3.33;;;8.10;99.90;;;;;;5035689;28;20025;-72
2022/05/09 02:28:12;;;;;;;6.40;2.70;;;8.10;99.90;;;;;;5034863;28;20026;-71
2022/05/09 02:30:38;;;;;;;5.30;2.42;;;8.00;99.90;;;;;;5035248;28;20153;-72
2022/05/09 02:33:06;;;;;;;9.13;3.55;;;8.00;99.90;;;;;;5035470;28;20025;-71
2022/05/09 02:35:32;;;;;;;9.30;2.85;;;8.00;99.90;;;;;;5034661;28;20082;-71
2022/05/09 02:37:58;;;;;;;7.68;2.97;;;8.00;99.90;;;;;;5034839;28;20029;-72
2022/05/09 02:40:26;;;;;;;10.18;3.45;;;8.00;99.90;;;;;;5035010;28;20128;-72
2022/05/09 02:42:53;;;;;;;15.05;3.90;;;8.00;99.90;;;;;;5033986;28;20020;-72
2022/05/09 02:45:19;;;;;;;8.40;2.72;;;7.90;99.90;;;;;;5034853;28;20504;-71
2022/05/09 02:47:45;;;;;;;6.38;2.60;;;8.00;99.90;;;;;;5034987;28;20115;-71
2022/05/09 02:50:11;;;;;;;7.72;2.92;;;7.90;99.90;;;;;;5033652;28;20395;-71
2022/05/09 02:52:37;;;;;;;10.77;2.65;;;7.90;99.90;;;;;;5034774;28;20025;-71
2022/05/09 02:55:05;;;;;;;13.23;3.13;;;7.90;99.90;;;;;;5034577;28;20439;-72
2022/05/09 02:57:32;;;;;;;9.88;3.58;;;7.80;99.90;;;;;;5033923;28;20401;-73
2022/05/09 02:59:57;;;;;;;10.70;3.30;;;7.90;99.90;;;;;;5035405;28;20034;-72
2022/05/09 03:02:23;;;;;;;13.10;3.25;;;7.80;99.90;;;;;;5034841;28;20556;-71
2022/05/09 03:04:49;;;;;;;5.70;2.58;;;7.80;99.90;;;;;;5033619;28;20125;-72
2022/05/09 03:07:16;;;;;;;6.80;2.72;;;7.80;99.90;;;;;;5034563;28;20021;-72
2022/05/09 03:09:44;;;;;;;8.70;2.90;;;7.70;99.90;;;;;;5034483;28;20025;-71
2022/05/09 03:12:11;;;;;;;10.02;3.50;;;7.80;99.90;;;;;;5033606;28;20030;-72
2022/05/09 03:14:38;;;;;;;6.95;2.97;;;7.70;99.90;;;;;;5034499;28;20116;-72
2022/05/09 03:17:05;;;;;;;13.27;4.45;;;7.70;99.90;;;;;;5034107;28;20473;-71
2022/05/09 03:19:31;;;;;;;11.05;3.30;;;7.70;99.90;;;;;;5033416;28;20485;-71
2022/05/09 03:21:56;;;;;;;5.75;3.13;;;7.70;99.90;;;;;;5034031;28;20079;-72
2022/05/09 03:24:22;;;;;;;7.78;3.30;;;7.60;99.90;;;;;;5034005;28;20473;-71
2022/05/09 03:26:49;;;;;;;9.05;2.72;;;7.60;99.90;;;;;;5033209;28;20021;-71
2022/05/09 03:29:15;;;;;;;7.68;3.17;;;7.60;99.90;;;;;;5034118;28;20025;-72
2022/05/09 03:31:41;;;;;;;14.35;4.93;;;7.60;99.90;;;;;;5033437;28;20036;-71
2022/05/09 03:34:07;;;;;;;12.65;3.65;;;7.60;99.90;;;;;;5033062;28;20341;-71
2022/05/09 03:36:33;;;;;;;10.68;3.67;;;7.50;99.90;;;;;;5034331;28;20025;-71
2022/05/09 03:38:59;;;;;;;5.85;2.60;;;7.50;99.90;;;;;;5033033;28;20075;-71
2022/05/09 03:41:24;;;;;;;9.07;2.65;;;7.50;99.90;;;;;;5036488;28;20025;-71
2022/05/09 03:43:50;;;;;;;13.73;3.30;;;7.40;99.90;;;;;;5033648;28;20021;-71
2022/05/09 03:46:16;;;;;;;13.50;3.55;;;7.40;99.90;;;;;;5033322;28;20477;-71
2022/05/09 03:48:42;;;;;;;7.78;2.80;;;7.40;99.90;;;;;;5033588;28;20033;-71
2022/05/09 03:51:08;;;;;;;8.15;2.70;;;7.40;99.90;;;;;;5034093;28;20075;-71
2022/05/09 03:53:33;;;;;;;6.93;3.15;;;7.40;99.90;;;;;;5032865;28;20029;-72
2022/05/09 03:56:00;;;;;;;11.23;2.85;;;7.40;99.90;;;;;;5034516;28;20025;-71
2022/05/09 03:58:26;;;;;;;8.45;3.28;;;7.30;99.90;;;;;;5033302;28;20054;-71
2022/05/09 04:00:52;;;;;;;12.00;3.20;;;7.30;99.90;;;;;;5032784;28;20040;-71
2022/05/09 04:03:18;;;;;;;8.73;3.33;;;7.30;99.90;;;;;;5033395;28;20386;-72
2022/05/09 04:05:44;;;;;;;11.40;3.13;;;7.30;99.90;;;;;;5033461;28;20033;-72
2022/05/09 04:08:12;;;;;;;7.53;3.92;;;7.30;99.90;;;;;;5032377;28;20477;-71
2022/05/09 04:10:40;;;;;;;7.90;3.72;;;7.30;99.90;;;;;;5033184;28;20481;-71
2022/05/09 04:13:06;;;;;;;6.18;3.20;;;7.30;99.90;;;;;;5033193;28;20025;-71
2022/05/09 04:18:18;;;;;;;8.07;3.55;;;7.30;99.90;;;;;;5033081;28;20378;-71
2022/05/09 04:20:45;;;;;;;8.30;3.10;;;7.30;99.90;;;;;;5033044;28;20116;-71
2022/05/09 04:23:11;;;;;;;11.05;3.65;;;7.30;99.90;;;;;;5032264;28;20032;-72
2022/05/09 04:25:36;;;;;;;8.77;3.40;;;7.40;99.90;;;;;;5033001;28;20030;-72
2022/05/09 04:28:05;;;;;;;13.52;4.10;;;7.30;99.90;;;;;;5032076;28;20021;-72
2022/05/09 04:30:32;;;;;;;9.95;3.30;;;7.40;99.90;;;;;;5032955;28;20033;-71
2022/05/09 04:32:58;;;;;;;11.07;3.83;;;7.40;99.90;;;;;;5034421;28;20584;-71
2022/05/09 04:35:24;;;;;;;8.15;3.17;;;7.40;99.90;;;;;;5031921;28;20120;-71
2022/05/09 04:37:53;;;;;;;7.53;4.03;;;7.40;99.90;;;;;;5032682;28;20196;-71
2022/05/09 04:40:28;;;;;;;11.30;3.72;;;7.40;99.90;;;;;;5032778;28;20076;-71
2022/05/09 04:42:56;;;;;;;10.15;3.30;;;7.50;99.90;;;;;;5032126;28;20030;-72
2022/05/09 04:45:22;;;;;;;12.13;3.75;;;7.50;99.90;;;;;;5032671;28;20044;-70
2022/05/09 04:47:50;;;;;;;8.35;3.70;;;7.60;99.90;;;;;;5032395;28;20377;-71
2022/05/09 04:50:16;;;;;;;8.02;3.38;;;7.60;99.90;;;;;;5031679;28;20535;-71
2022/05/09 04:52:42;;;;;;;11.13;3.22;;;7.70;99.90;;;;;;5032601;28;20060;-71
2022/05/09 04:55:08;;;;;;;6.95;3.20;;;7.70;99.90;;;;;;5032229;28;20454;-72
2022/05/09 04:57:33;;;;;;;12.05;4.68;;;7.80;99.90;;;;;;5031441;28;20505;-71
2022/05/09 05:00:01;;;;;;;12.38;4.00;;;7.80;99.90;;;;;;5032223;28;20052;-71
2022/05/09 05:02:27;;;;;;;9.50;3.67;;;7.90;99.90;;;;;;5032248;28;20384;-70
2022/05/09 05:04:52;;;;;;;11.98;3.72;;;8.00;99.90;;;;;;5031269;28;20025;-71
2022/05/09 05:07:17;;;;;;;8.27;3.58;;;8.10;99.90;;;;;;5032407;28;20033;-70
2022/05/09 05:09:43;;;;;;;7.47;3.28;;;8.20;99.90;;;;;;5032405;28;20025;-71
2022/05/09 05:12:09;;;;;;;9.48;4.45;;;8.30;99.90;;;;;;5031482;28;20436;-71
2022/05/09 05:14:35;;;;;;;8.65;3.53;;;8.40;99.90;;;;;;5032135;28;20033;-71
2022/05/09 05:17:00;;;;;;;14.73;4.25;;;8.50;99.90;;;;;;5031858;28;20492;-71
2022/05/09 05:19:28;;;;;;;18.85;3.95;;;8.60;99.90;;;;;;5031599;28;20028;-71
2022/05/09 05:21:55;;;;;;;13.98;4.10;;;8.70;99.90;;;;;;5032070;28;20029;-71
2022/05/09 05:24:21;;;;;;;11.40;4.15;;;8.80;99.90;;;;;;5031370;28;20037;-71
2022/05/09 05:26:46;;;;;;;7.03;3.15;;;8.90;99.90;;;;;;5032035;28;20088;-71
2022/05/09 05:29:13;;;;;;;15.02;6.13;;;8.90;99.90;;;;;;5028979;28;20040;-72
2022/05/09 05:31:38;;;;;;;12.00;4.82;;;9.00;99.90;;;;;;5030713;28;20366;-73
2022/05/09 05:34:04;;;;;;;15.98;4.90;;;9.10;99.90;;;;;;5029438;28;20090;-71
2022/05/09 05:36:30;;;;;;;6.85;3.55;;;9.20;99.90;;;;;;5029765;28;20026;-71
2022/05/09 05:38:55;;;;;;;14.88;4.28;;;9.30;99.90;;;;;;5029011;28;20374;-72
2022/05/09 05:41:22;;;;;;;14.25;4.63;;;9.30;99.90;;;;;;5030169;28;20026;-72
2022/05/09 05:43:48;;;;;;;16.52;4.70;;;9.40;99.90;;;;;;5032330;28;20041;-72
2022/05/09 05:46:13;;;;;;;14.02;4.80;;;9.40;99.90;;;;;;5022759;28;20032;-72
2022/05/09 05:48:40;;;;;;;16.00;4.90;;;9.20;99.90;;;;;;5029201;28;20044;-71
2022/05/09 05:51:06;;;;;;;8.85;3.85;;;9.60;99.90;;;;;;5022100;28;20032;-71
2022/05/09 05:53:32;;;;;;;14.07;4.30;;;9.70;99.90;;;;;;5028263;28;20026;-72
2022/05/09 05:55:57;;;;;;;13.95;4.75;;;9.70;99.90;;;;;;5030739;28;20025;-72
2022/05/09 05:58:25;;;;;;;13.20;5.85;;;9.70;99.90;;;;;;5036384;28;20124;-71
2022/05/09 06:00:51;;;;;;;7.82;4.63;;;9.80;99.90;;;;;;5032568;28;20056;-72
2022/05/09 06:03:16;;;;;;;10.13;4.63;;;9.90;99.90;;;;;;5033864;28;20064;-72
2022/05/09 06:05:42;;;;;;;15.02;5.30;;;10.00;99.90;;;;;;5033325;28;20148;-72
2022/05/09 06:08:08;;;;;;;13.60;5.35;;;10.00;99.90;;;;;;5027106;28;20052;-72
2022/05/09 06:10:34;;;;;;;17.42;5.35;;;10.10;99.90;;;;;;5034105;28;20021;-72
2022/05/09 06:13:04;;;;;;;14.13;5.18;;;10.20;99.90;;;;;;5033906;28;20087;-72
2022/05/09 06:15:31;;;;;;;11.00;4.60;;;10.20;99.90;;;;;;5033098;28;20028;-72
2022/05/09 06:17:59;;;;;;;12.68;5.90;;;10.30;99.90;;;;;;5034080;28;20045;-73
2022/05/09 06:20:27;;;;;;;16.45;6.00;;;10.30;99.90;;;;;;5033870;28;20124;-71
2022/05/09 06:22:54;;;;;;;11.65;5.30;;;10.40;99.90;;;;;;5030457;28;20501;-72
2022/05/09 06:25:21;;;;;;;12.00;5.10;;;10.40;99.90;;;;;;5032182;28;20052;-70
2022/05/09 06:27:48;;;;;;;9.63;4.68;;;10.50;99.90;;;;;;5028553;28;20086;-71
2022/05/09 06:30:15;;;;;;;10.13;4.28;;;10.60;99.90;;;;;;5030020;28;20037;-71
2022/05/09 06:32:41;;;;;;;9.18;4.93;;;10.60;99.90;;;;;;5029180;28;20413;-71
2022/05/09 06:35:14;;;;;;;13.65;4.38;;;10.70;99.90;;;;;;5032957;28;20025;-71
2022/05/09 06:37:41;;;;;;;13.15;5.97;;;10.80;99.90;;;;;;5033524;28;20520;-71
2022/05/09 06:40:09;;;;;;;13.82;4.85;;;10.80;99.90;;;;;;5033445;28;20022;-70
2022/05/09 06:42:35;;;;;;;14.55;5.88;;;10.90;99.90;;;;;;5032973;28;20021;-70
2022/05/09 06:45:01;;;;;;;14.68;5.20;;;10.90;99.90;;;;;;5026897;28;20056;-72
2022/05/09 06:47:27;;;;;;;13.50;5.32;;;11.00;99.90;;;;;;5033646;28;20036;-72
2022/05/09 06:49:53;;;;;;;16.95;5.60;;;11.10;99.90;;;;;;5032684;28;20385;-71
2022/05/09 06:52:18;;;;;;;14.13;5.25;;;11.10;99.90;;;;;;5028228;28;20026;-71
2022/05/09 06:54:44;;;;;;;14.48;5.22;;;11.20;99.90;;;;;;5033625;28;20075;-72
2022/05/09 06:57:09;;;;;;;11.27;4.95;;;11.30;99.90;;;;;;5027377;28;20038;-70
2022/05/09 06:59:35;;;;;;;9.45;4.70;;;11.30;99.90;;;;;;5033525;28;20018;-71
2022/05/09 07:02:01;;;;;;;19.40;5.93;;;11.40;99.90;;;;;;5033243;28;20540;-70
2022/05/09 07:04:27;;;;;;;12.98;5.20;;;11.40;99.90;;;;;;5031993;28;20420;-71
2022/05/09 07:06:53;;;;;;;10.05;5.55;;;11.50;99.90;;;;;;5030700;28;20017;-70
2022/05/09 07:09:18;;;;;;;14.57;4.85;;;11.50;99.90;;;;;;5031769;28;20087;-72
2022/05/09 07:11:44;;;;;;;14.77;5.35;;;11.60;99.90;;;;;;5034226;28;20026;-72
2022/05/09 07:14:10;;;;;;;12.32;5.38;;;11.70;99.90;;;;;;5034115;28;20029;-71
2022/05/09 07:16:36;;;;;;;15.95;5.75;;;11.70;99.90;;;;;;5033942;28;20108;-72
2022/05/09 07:19:04;;;;;;;11.55;4.78;;;11.80;99.90;;;;;;5032996;28;20025;-70
2022/05/09 07:21:30;;;;;;;15.07;5.22;;;11.90;99.90;;;;;;5033181;28;20033;-72
2022/05/09 07:23:56;;;;;;;16.25;5.38;;;12.00;99.90;;;;;;5032968;28;20037;-72
2022/05/09 07:26:22;;;;;;;11.13;4.75;;;12.00;99.90;;;;;;5034367;28;20026;-72
2022/05/09 07:28:48;;;;;;;12.05;4.90;;;12.10;99.90;;;;;;5034045;28;20473;-72
2022/05/09 07:31:14;;;;;;;13.32;5.65;;;12.20;99.90;;;;;;5033643;28;20036;-70
2022/05/09 07:33:39;;;;;;;10.25;5.72;;;12.30;99.90;;;;;;5034062;28;20034;-72
2022/05/09 07:36:05;;;;;;;8.05;4.35;;;12.30;99.90;;;;;;5034244;28;20409;-72
2022/05/09 07:38:31;;;;;;;9.02;4.88;;;12.40;99.90;;;;;;5033237;28;20036;-71
2022/05/09 07:40:57;;;;;;;9.60;5.00;;;12.50;99.90;;;;;;5032625;28;20040;-72
2022/05/09 07:43:24;;;;;;;11.90;5.63;;;12.50;99.90;;;;;;5003600;28;20036;-71
2022/05/09 07:45:52;;;;;;;10.85;5.07;;;12.60;99.90;;;;;;4999525;28;20058;-71
2022/05/09 07:48:19;;;;;;;16.67;5.78;;;12.70;99.90;;;;;;5004532;28;20029;-71
2022/05/09 07:50:45;;;;;;;12.73;5.63;;;12.80;99.90;;;;;;5003626;28;20046;-71
2022/05/09 07:53:18;;;;;;;10.43;5.47;;;12.90;99.90;;;;;;5011285;28;20029;-71
2022/05/09 07:55:44;;;;;;;9.70;5.07;;;12.90;99.90;;;;;;5021514;28;20367;-72
2022/05/09 07:58:10;;;;;;;9.43;4.88;;;13.00;99.90;;;;;;5018175;28;20046;-72
2022/05/09 08:00:37;;;;;;;12.50;5.63;;;13.10;99.90;;;;;;4999318;28;20011;-72
2022/05/09 08:03:04;;;;;;;12.30;5.43;;;13.20;99.90;;;;;;5002185;28;20528;-72
2022/05/09 08:05:31;;;;;;;15.07;6.15;;;13.30;99.90;;;;;;5000624;28;20038;-72
2022/05/09 08:07:56;;;;;;;21.70;6.15;;;13.30;99.90;;;;;;4998481;28;20037;-72
2022/05/09 08:10:22;;;;;;;13.00;6.32;;;13.40;99.90;;;;;;4992585;28;20056;-71
2022/05/09 08:12:48;;;;;;;15.50;6.13;;;13.50;99.90;;;;;;4995298;28;20022;-72
2022/05/09 08:15:15;;;;;;;12.05;6.25;;;13.60;99.90;;;;;;5002380;28;20041;-72
2022/05/09 08:17:41;;;;;;;8.93;5.38;;;13.60;99.90;;;;;;4996178;28;20030;-72
2022/05/09 08:20:08;;;;;;;8.40;5.70;;;13.70;99.90;;;;;;5001269;28;20052;-70
2022/05/09 08:22:34;;;;;;;12.35;5.18;;;13.80;99.90;;;;;;5004873;28;20026;-72
2022/05/09 08:25:01;;;;;;;8.45;5.22;;;13.90;99.90;;;;;;5003760;28;20040;-72
2022/05/09 08:27:26;;;;;;;10.98;5.57;;;14.00;99.90;;;;;;5008675;28;20084;-71
2022/05/09 08:29:56;;;;;;;22.42;7.35;;;14.10;99.90;;;;;;5000856;28;20030;-71
2022/05/09 08:32:23;;;;;;;15.75;5.82;;;14.20;99.90;;;;;;5008192;28;20442;-72
2022/05/09 08:34:51;;;;;;;18.33;6.13;;;14.20;99.90;;;;;;5010077;28;20627;-71
2022/05/09 08:37:19;;;;;;;10.60;4.88;;;14.30;99.90;;;;;;5001475;28;20094;-72
2022/05/09 08:39:45;;;;;;;12.15;5.20;;;14.40;99.90;;;;;;5006913;28;20026;-72
2022/05/09 08:42:18;;;;;;;11.60;5.55;;;14.50;99.90;;;;;;5006653;28;20084;-72
2022/05/09 08:44:56;;;;;;;12.15;5.03;;;14.60;99.90;;;;;;5009105;28;20034;-72
2022/05/09 08:47:29;;;;;;;10.95;4.60;;;14.70;99.90;;;;;;5005374;28;20087;-71
2022/05/09 08:50:18;;;;;;;12.00;5.65;;;14.90;99.90;;;;;;5016555;28;20485;-72
2022/05/09 08:52:49;;;;;;;12.45;5.20;;;15.00;99.90;;;;;;5008464;28;20037;-72
2022/05/09 08:55:19;;;;;;;;;;;15.10;99.90;;;;;;5006815;28;20030;-71
2022/05/09 08:57:48;;;;;;;10.85;6.43;;;15.20;99.90;;;;;;5002199;28;19917;-71
2022/05/09 09:00:17;;;;;;;11.00;4.85;;;15.20;99.90;;;;;;4995458;28;20089;-71
2022/05/09 09:02:56;;;;;;;14.15;6.15;;;15.30;99.90;;;;;;4994486;28;20037;-72
2022/05/09 09:05:25;;;;;;;10.20;5.13;;;15.50;99.90;;;;;;4995159;28;20034;-73
2022/05/09 09:08:03;;;;;;;9.20;4.60;;;15.50;99.90;;;;;;4999226;28;20110;-71
2022/05/09 09:10:43;;;;;;;11.00;5.00;;;15.60;99.90;;;;;;5007464;28;20038;-71
2022/05/09 09:13:23;;;;;;;;;;;15.70;99.90;;;;;;4995359;28;20081;-71
2022/05/09 09:16:11;;;;;;;10.40;4.53;;;15.90;99.90;;;;;;5005460;28;19993;-71
2022/05/09 09:18:46;;;;;;;9.95;4.05;;;16.00;99.90;;;;;;4994439;28;20026;-72
2022/05/09 09:21:26;;;;;;;11.48;5.20;;;16.10;99.90;;;;;;5011032;28;20022;-71
2022/05/09 09:24:31;;;;;;;12.73;5.22;;;16.20;99.90;;;;;;5002477;28;20497;-73
2022/05/09 09:26:59;;;;;;;16.02;6.00;;;16.30;99.90;;;;;;5008748;28;20502;-72
2022/05/09 09:29:41;;;;;;;11.10;6.47;;;16.30;99.90;;;;;;5006039;28;20031;-72
2022/05/09 09:32:11;;;;;;;11.45;5.20;;;16.40;99.90;;;;;;5003967;28;20030;-71
2022/05/09 09:34:43;;;;;;;14.13;5.82;;;16.50;99.90;;;;;;5005023;28;20492;-72
2022/05/09 09:37:39;;;;;;;13.93;5.50;;;16.60;99.90;;;;;;5002782;28;20054;-72
2022/05/09 09:40:07;;;;;;;11.27;5.10;;;16.60;99.90;;;;;;5003500;28;20116;-71
2022/05/09 09:42:33;;;;;;;13.00;4.72;;;16.80;99.90;;;;;;5010269;28;20021;-72
2022/05/09 09:45:00;;;;;;;10.55;4.18;;;16.80;99.80;;;;;;4997785;28;20063;-72
2022/05/09 09:47:28;;;;;;;11.07;5.28;;;16.90;99.40;;;;;;5010851;28;20022;-71
2022/05/09 09:50:15;;;;;;;10.88;5.10;;;17.00;98.60;;;;;;4999701;28;20030;-71
2022/05/09 09:52:56;;;;;;;11.15;4.97;;;17.10;98.20;;;;;;5007835;28;20091;-71
2022/05/09 09:55:32;;;;;;;12.93;5.57;;;17.20;97.60;;;;;;4998241;28;20030;-70
2022/05/09 09:58:18;;;;;;;7.93;4.65;;;17.40;98.10;;;;;;5000546;28;20066;-72
2022/05/09 10:00:43;;;;;;;8.80;3.92;;;17.40;97.90;;;;;;5006526;28;20025;-72
2022/05/09 10:03:21;;;;;;;10.23;4.65;;;17.50;97.40;;;;;;5006432;28;20026;-72
2022/05/09 10:05:49;;;;;;;11.88;4.50;;;17.50;97.10;;;;;;5009336;28;20046;-71
2022/05/09 10:08:21;;;;;;;11.68;4.18;;;17.50;96.50;;;;;;5006915;28;20037;-73
2022/05/09 10:10:55;;;;;;;10.40;5.40;;;17.70;96.50;;;;;;4997730;28;20049;-71
2022/05/09 10:13:22;;;;;;;6.40;4.30;;;17.80;96.20;;;;;;4993830;28;20030;-72
2022/05/09 10:16:02;;;;;;;10.30;4.32;;;17.90;96.10;;;;;;4991004;28;20504;-72
2022/05/09 10:18:34;;;;;;;12.10;4.75;;;18.10;95.40;;;;;;4990513;28;20110;-72
2022/05/09 10:21:10;;;;;;;8.63;3.83;;;18.10;94.70;;;;;;4990926;28;20046;-73
2022/05/09 10:26:34;;;;;;;14.00;5.60;;;18.30;95.20;;;;;;4991617;28;20040;-71
2022/05/09 10:29:06;;;;;;;7.43;3.88;;;18.50;94.30;;;;;;4991849;28;20030;-72
2022/05/09 10:31:40;;;;;;;6.18;3.80;;;18.50;94.80;;;;;;4992233;28;20026;-72
2022/05/09 10:34:22;;;;;;;7.43;3.75;;;18.50;94.80;;;;;;4991421;28;20110;-73
2022/05/09 10:36:56;;;;;;;9.95;3.97;;;18.60;94.40;;;;;;4992066;28;20023;-73
2022/05/09 10:39:52;;;;;;;10.73;3.72;;;18.70;93.10;;;;;;4992412;28;20033;-72
2022/05/09 10:42:32;;;;;;;10.10;4.93;;;18.80;92.80;;;;;;4992604;28;20041;-72
2022/05/09 10:45:18;;;;;;;8.88;3.63;;;18.90;93.10;;;;;;4998877;28;20088;-72
2022/05/09 10:47:55;;;;;;;8.52;3.65;;;19.00;93.00;;;;;;5003794;28;20061;-71
2022/05/09 10:50:34;;;;;;;9.80;3.67;;;19.10;91.70;;;;;;5030199;28;20029;-71
2022/05/09 10:53:24;;;;;;;7.18;3.28;;;19.40;91.30;;;;;;5032139;28;20030;-69
2022/05/09 10:56:03;;;;;;;5.38;2.00;;;19.30;91.20;;;;;;5021096;28;20497;-72
2022/05/09 10:58:57;;;;;;;3.55;1.92;;;19.30;88.40;;;;;;4997479;28;20054;-73
2022/05/09 11:01:30;;;;;;;7.30;2.63;;;19.40;88.90;;;;;;5005114;28;20038;-71
2022/05/09 11:03:56;;;;;;;7.93;2.80;;;19.40;88.00;;;;;;5002459;28;20042;-71
2022/05/09 11:06:50;;;;;;;3.75;2.45;;;19.40;88.90;;;;;;5005904;28;20061;-71
2022/05/09 11:09:23;;;;;;;3.58;2.53;;;19.50;88.70;;;;;;5000092;28;20054;-71
2022/05/09 11:12:20;;;;;;;8.68;3.72;;;19.60;87.60;;;;;;5000725;28;20045;-70
2022/05/09 11:15:06;;;;;;;6.57;3.88;;;19.70;89.30;;;;;;5000925;28;20452;-71
2022/05/09 11:17:51;;;;;;;9.55;4.05;;;19.70;89.20;;;;;;5007472;28;20109;-71
2022/05/09 11:20:35;;;;;;;5.82;2.83;;;19.70;87.70;;;;;;4997403;28;20018;-71
2022/05/09 11:23:28;;;;;;;7.78;4.30;;;19.60;87.00;;;;;;5001291;28;20034;-72
2022/05/09 11:26:07;;;;;;;7.88;4.00;;;19.70;86.50;;;;;;5010727;28;20041;-71
2022/05/09 11:29:09;;;;;;;5.15;3.25;;;19.70;87.10;;;;;;4996988;28;20033;-72
2022/05/09 11:32:07;;;;;;;8.82;3.80;;;19.90;86.80;;;;;;4995842;28;20109;-71
2022/05/09 11:35:10;;;;;;;4.30;2.78;;;19.90;85.00;;;;;;5009543;28;20065;-71
2022/05/09 11:38:08;;;;;;;7.70;3.40;;;20.10;83.10;;;;;;5002686;28;20499;-71
2022/05/09 11:41:17;;;;;;;8.63;3.80;;;20.20;82.00;;;;;;4997909;28;20342;-72
2022/05/09 11:44:16;;;;;;;6.47;3.55;;;20.20;84.10;;;;;;4999829;28;20034;-71
2022/05/09 11:46:55;;;;;;;6.83;3.67;;;20.30;81.00;;;;;;5009675;28;20030;-72
2022/05/09 11:49:50;;;;;;;5.72;3.05;;;20.30;81.60;;;;;;4996129;28;20276;-71
2022/05/09 11:52:27;;;;;;;6.75;3.33;;;20.50;82.40;;;;;;5002020;28;20454;-71
2022/05/09 11:55:04;;;;;;;9.10;4.03;;;20.50;82.90;;;;;;5000477;28;20509;-71
2022/05/09 11:57:33;;;;;;;7.47;3.63;;;20.60;80.10;;;;;;5005120;28;20406;-72
2022/05/09 12:00:25;;;;;;;5.68;3.60;;;20.70;78.20;;;;;;5007455;28;20070;-71
2022/05/09 12:02:58;;;;;;;6.88;3.28;;;20.80;79.90;;;;;;4998176;28;20038;-71
2022/05/09 12:05:26;;;;;;;16.15;4.43;;;20.80;78.40;;;;;;4995324;28;20549;-71
2022/05/09 12:08:03;;;;;;;7.85;3.80;;;20.80;77.80;;;;;;5002683;28;20045;-72
2022/05/09 12:10:32;;;;;;;4.95;3.42;;;20.90;77.90;;;;;;5002771;28;20034;-71
2022/05/09 12:13:00;;;;;;;9.70;3.53;;;21.00;76.40;;;;;;5001875;28;20029;-72
2022/05/09 12:15:29;;;;;;;6.82;3.90;;;21.00;77.20;;;;;;4998205;28;20042;-71
2022/05/09 12:17:54;;;;;;;4.68;3.38;;;21.00;76.80;;;;;;4997159;28;20030;-71
2022/05/09 12:20:29;;;;;;;5.43;3.58;;;21.10;77.30;;;;;;4997637;28;20524;-71
2022/05/09 12:22:56;;;;;;;10.18;4.78;;;21.10;77.50;;;;;;4995478;28;20026;-72
2022/05/09 12:25:39;;;;;;;8.73;3.92;;;21.10;74.90;;;;;;5002402;28;20125;-72
2022/05/09 12:28:21;;;;;;;5.38;3.42;;;21.10;75.60;;;;;;5000541;28;20030;-71
2022/05/09 12:31:02;;;;;;;10.07;4.20;;;21.10;77.20;;;;;;5004771;28;20112;-71
2022/05/09 12:33:39;;;;;;;6.43;3.70;;;21.20;77.50;;;;;;5000230;28;20034;-71
2022/05/09 12:36:10;;;;;;;3.85;3.45;;;21.30;76.60;;;;;;5000676;28;20068;-72
2022/05/09 12:38:39;;;;;;;4.32;3.75;;;21.50;77.20;;;;;;4999075;28;20509;-71
2022/05/09 12:41:13;;;;;;;5.22;3.92;;;21.60;76.90;;;;;;5003023;28;20038;-71
2022/05/09 12:43:45;;;;;;;5.68;4.75;;;21.80;76.20;;;;;;5003220;28;20042;-71
2022/05/09 12:46:22;;;;;;;11.27;4.72;;;21.90;73.60;;;;;;4998555;28;20426;-72
2022/05/09 12:48:49;;;;;;;6.80;4.32;;;21.90;74.50;;;;;;4993885;28;20548;-72
2022/05/09 12:51:15;;;;;;;5.60;4.20;;;22.00;74.70;;;;;;5003848;28;20516;-71
2022/05/09 12:53:42;;;;;;;7.22;4.20;;;22.00;75.20;;;;;;5003640;28;20037;-72
2022/05/09 12:56:29;;;;;;;9.77;4.32;;;22.10;73.90;;;;;;5003873;28;20092;-72
2022/05/09 12:59:05;;;;;;;5.78;3.45;;;22.10;73.90;;;;;;5002650;28;20046;-71
2022/05/09 13:01:30;;;;;;;6.45;3.85;;;22.10;74.40;;;;;;4990469;28;20038;-71
2022/05/09 13:04:00;;;;;;;3.78;3.28;;;22.30;73.90;;;;;;4996229;28;20465;-71
2022/05/09 13:06:29;;;;;;;4.75;2.67;;;22.40;72.40;;;;;;5005627;28;20057;-71
2022/05/09 13:08:54;;;;;;;3.88;2.78;;;22.50;71.70;;;;;;4993878;28;20037;-71
2022/05/09 13:11:31;;;;;;;4.03;2.83;;;22.70;71.90;;;;;;4994862;28;20453;-71
2022/05/09 13:14:07;;;;;;;5.28;2.50;;;22.90;71.50;;;;;;5003217;28;20084;-72